Time;durP1;ratioP1;P1;durP2;ratioP2;P2;SDS_P1;SDS_P2;PMS_P1;PMS_P2;Temp;Humidity;BMP_temperature;BMP_pressure;BME280_temperature;BME280_humidity;BME280_pressure;Samples;Min_cycle;Max_cycle;Signal;HPM_P1;HPM_P2
2022/08/12 00:43:07;;;;;;;;;;;;;;;23.93;79.87;97103.56;621761;228;64916;-65
2022/08/12 00:46:29;;;;;;;;;;;;;;;23.92;79.86;97101.95;621820;228;47151;-65
2022/08/12 00:48:05;;;;;;;;;;;;;;;23.93;79.91;97103.56;620843;228;62996;-64
2022/08/12 00:50:34;;;;;;;;;;;;;;;23.92;79.94;97101.95;621720;228;64510;-64
2022/08/12 00:53:02;;;;;;;;;;;;;;;23.93;79.94;97100.88;621754;228;64799;-64
2022/08/12 00:55:29;;;;;;;;;;;;;;;23.92;80.00;97093.90;621680;228;62751;-64
2022/08/12 00:57:57;;;;;;;;;;;;;;;23.93;80.05;97098.20;621715;228;64906;-64
2022/08/12 01:00:26;;;;;;;;;;;;;;;23.93;80.05;97092.83;621619;228;65675;-64
2022/08/12 01:02:57;;;;;;;;;;;;;;;23.93;80.09;97090.14;621729;228;62608;-64
2022/08/12 01:13:36;;;;;;;;;;;;;;;23.93;80.20;97103.56;621680;228;67070;-64
2022/08/12 01:16:05;;;;;;;;;;;;;;;23.93;80.26;97098.20;621759;228;66851;-64
2022/08/12 01:18:34;;;;;;;;;;;;;;;23.93;80.33;97103.56;618673;228;63059;-64
2022/08/12 01:21:23;;;;;;;;;;;;;;;23.92;80.35;97096.58;618022;229;49477;-65
2022/08/12 01:23:52;;;;;;;;;;;;;;;23.91;80.35;97098.47;618245;229;65016;-65
2022/08/12 01:26:25;;;;;;;;;;;;;;;23.92;80.36;97086.64;618279;229;64891;-65
2022/08/12 01:28:57;;;;;;;;;;;;;;;23.92;80.36;97096.58;618253;229;65854;-65
2022/08/12 01:31:26;;;;;;;;;;;;;;;23.92;80.37;97088.53;618278;229;67062;-65
2022/08/12 01:34:05;;;;;;;;;;;;;;;23.92;80.42;97091.21;618294;229;64856;-67
2022/08/12 01:36:46;;;;;;;;;;;;;;;23.92;80.49;97085.84;618236;229;69014;-67
2022/08/12 01:39:15;;;;;;;;;;;;;;;23.92;80.52;97077.80;618271;229;67055;-67
2022/08/12 01:41:47;;;;;;;;;;;;;;;23.91;80.50;97077.00;618271;229;64918;-68
2022/08/12 01:44:15;;;;;;;;;;;;;;;23.91;80.49;97079.69;618123;229;64503;-68
2022/08/12 01:46:50;;;;;;;;;;;;;;;23.91;80.49;97077.00;618255;229;64810;-67
2022/08/12 01:49:37;;;;;;;;;;;;;;;23.91;80.53;97078.89;618305;229;64937;-67
2022/08/12 01:52:06;;;;;;;;;;;;;;;23.92;80.61;97075.11;618085;229;67246;-68
2022/08/12 01:54:37;;;;;;;;;;;;;;;23.92;80.58;97069.73;618260;229;64679;-67
2022/08/12 01:57:06;;;;;;;;;;;;;;;23.91;80.58;97068.16;618254;229;64847;-67
2022/08/12 01:59:55;;;;;;;;;;;;;;;23.91;80.60;97074.31;618114;229;67523;-67
2022/08/12 02:02:18;;;;;;;;;;;;;;;;;;618077;229;66993;-67
2022/08/12 02:13:12;;;;;;;;;;;;;;;23.90;80.82;97063.89;618286;229;65311;-68
2022/08/12 02:15:51;;;;;;;;;;;;;;;23.90;80.77;97069.25;617995;229;64841;-67
2022/08/12 02:18:17;;;;;;;;;;;;;;;;;;620735;228;64783;-67
2022/08/12 02:20:55;;;;;;;;;;;;;;;23.89;80.86;97067.64;621790;228;63039;-67
2022/08/12 02:23:27;;;;;;;;;;;;;;;23.88;80.84;97069.53;621587;228;64895;-66
2022/08/12 02:25:56;;;;;;;;;;;;;;;23.90;80.82;97071.94;621791;228;65592;-67
2022/08/12 02:28:24;;;;;;;;;;;;;;;23.90;80.80;97066.57;621587;228;63029;-67
2022/08/12 02:30:51;;;;;;;;;;;;;;;23.88;80.78;97064.16;621754;228;67343;-67
2022/08/12 02:33:20;;;;;;;;;;;;;;;23.89;80.75;97070.32;621786;228;66903;-67
2022/08/12 02:35:50;;;;;;;;;;;;;;;23.88;80.78;97077.58;621750;228;62648;-67
2022/08/12 02:38:17;;;;;;;;;;;;;;;23.88;80.83;97074.89;621750;228;64812;-68
2022/08/12 02:40:46;;;;;;;;;;;;;;;23.89;80.90;97076.48;621783;228;65150;-67
2022/08/12 02:43:20;;;;;;;;;;;;;;;23.90;80.91;97077.30;621706;228;62753;-66
2022/08/12 02:45:58;;;;;;;;;;;;;;;23.89;80.95;97073.00;621477;228;67154;-67
2022/08/12 02:48:29;;;;;;;;;;;;;;;23.90;80.95;97071.94;621749;228;66898;-67
2022/08/12 02:50:57;;;;;;;;;;;;;;;23.89;80.87;97073.00;621751;228;62701;-67
2022/08/12 02:53:26;;;;;;;;;;;;;;;23.88;80.80;97068.73;621725;228;68004;-67
2022/08/12 02:55:56;;;;;;;;;;;;;;;23.88;80.72;97080.27;621779;228;64974;-67
2022/08/12 02:58:24;;;;;;;;;;;;;;;23.89;80.72;97073.80;621767;228;64982;-67
2022/08/12 03:00:52;;;;;;;;;;;;;;;23.88;80.73;97069.53;621750;228;66853;-67
2022/08/12 03:03:21;;;;;;;;;;;;;;;23.88;80.81;97072.21;621758;228;66940;-67
2022/08/12 03:05:53;;;;;;;;;;;;;;;23.89;80.90;97064.95;621735;228;65197;-66
2022/08/12 03:08:23;;;;;;;;;;;;;;;23.88;80.91;97074.89;621602;228;65106;-66
2022/08/12 03:10:52;;;;;;;;;;;;;;;23.87;80.90;97067.94;621729;228;66965;-66
2022/08/12 03:13:21;;;;;;;;;;;;;;;23.88;80.90;97076.78;621749;228;63346;-66
2022/08/12 03:15:49;;;;;;;;;;;;;;;23.88;80.84;97076.78;621637;228;67082;-68
2022/08/12 03:18:18;;;;;;;;;;;;;;;23.88;80.77;97076.78;621710;228;66894;-67
2022/08/12 03:20:45;;;;;;;;;;;;;;;23.87;80.80;97073.31;621673;228;66132;-67
2022/08/12 03:23:14;;;;;;;;;;;;;;;23.88;80.81;97076.78;621767;228;64789;-67
2022/08/12 03:25:42;;;;;;;;;;;;;;;23.87;80.83;97075.17;621712;228;66898;-67
2022/08/12 03:28:11;;;;;;;;;;;;;;;23.88;80.80;97074.10;621757;228;64894;-67
2022/08/12 03:30:43;;;;;;;;;;;;;;;23.88;80.72;97084.84;621702;228;67076;-67
2022/08/12 03:33:15;;;;;;;;;;;;;;;23.89;80.71;97081.05;621657;228;44411;-64
2022/08/12 03:35:45;;;;;;;;;;;;;;;23.88;80.80;97080.27;621748;228;65123;-64
2022/08/12 03:38:14;;;;;;;;;;;;;;;23.88;80.75;97082.16;621727;228;67043;-64
2022/08/12 04:00:23;;;;;;;;;;;;;;;23.86;80.95;97097.73;621748;228;62728;-64
2022/08/12 04:02:54;;;;;;;;;;;;;;;23.85;80.98;97096.95;621650;228;64514;-64
2022/08/12 04:05:19;;;;;;;;;;;;;;;23.85;81.04;97093.47;621556;228;64518;-64
2022/08/12 04:07:47;;;;;;;;;;;;;;;23.85;80.98;97096.16;621755;228;65232;-64
2022/08/12 04:10:15;;;;;;;;;;;;;;;23.85;80.93;97091.58;621779;228;65199;-64
2022/08/12 04:15:30;;;;;;;;;;;;;;;23.84;80.97;97091.85;621755;228;62902;-66
2022/08/12 04:17:59;;;;;;;;;;;;;;;23.85;80.94;97096.16;619494;228;64415;-67
2022/08/12 04:20:26;;;;;;;;;;;;;;;23.84;80.87;97092.64;618286;229;66957;-67
2022/08/12 04:22:54;;;;;;;;;;;;;;;23.84;80.89;97092.64;618254;229;65368;-67
2022/08/12 04:25:24;;;;;;;;;;;;;;;23.85;80.92;97090.78;618262;229;68318;-67
2022/08/12 04:27:53;;;;;;;;;;;;;;;23.84;80.90;97098.02;618331;229;67034;-67
2022/08/12 04:30:22;;;;;;;;;;;;;;;23.85;80.88;97090.78;618328;229;63642;-67
2022/08/12 04:32:51;;;;;;;;;;;;;;;23.85;80.86;97098.84;618272;229;67338;-67
2022/08/12 04:35:18;;;;;;;;;;;;;;;23.85;80.81;97101.52;618283;229;64989;-67
2022/08/12 04:37:46;;;;;;;;;;;;;;;23.85;80.83;97096.16;618252;229;64876;-67
2022/08/12 04:40:15;;;;;;;;;;;;;;;23.84;80.89;97089.17;618274;229;67013;-67
2022/08/12 04:42:44;;;;;;;;;;;;;;;23.85;80.89;97088.10;618316;229;64793;-67
2022/08/12 04:45:11;;;;;;;;;;;;;;;23.84;80.81;97095.33;618274;229;65382;-67
2022/08/12 04:47:39;;;;;;;;;;;;;;;23.84;80.84;97098.02;618250;229;67067;-67
2022/08/12 04:50:07;;;;;;;;;;;;;;;23.84;80.90;97094.53;618259;229;66872;-67
2022/08/12 04:52:35;;;;;;;;;;;;;;;23.85;80.88;97093.47;618247;229;65372;-67
2022/08/12 04:55:03;;;;;;;;;;;;;;;23.84;80.87;97094.53;618349;229;67952;-67
2022/08/12 04:57:30;;;;;;;;;;;;;;;23.85;80.83;97093.47;618300;229;66960;-67
2022/08/12 04:59:58;;;;;;;;;;;;;;;23.84;80.84;97095.33;618283;229;65162;-67
2022/08/12 05:02:25;;;;;;;;;;;;;;;23.84;80.84;97100.70;618276;229;67004;-67
2022/08/12 05:04:55;;;;;;;;;;;;;;;23.84;80.85;97094.53;618207;229;64639;-67
2022/08/12 05:07:22;;;;;;;;;;;;;;;23.84;80.85;97097.22;618306;229;64978;-67
2022/08/12 05:09:50;;;;;;;;;;;;;;;23.84;80.88;97097.22;618309;229;67054;-67
2022/08/12 05:12:18;;;;;;;;;;;;;;;23.85;80.92;97096.16;618207;229;67063;-67
2022/08/12 05:14:47;;;;;;;;;;;;;;;23.84;80.88;97099.91;618238;229;62989;-67
2022/08/12 05:17:14;;;;;;;;;;;;;;;23.83;80.90;97090.27;619429;228;65762;-67
2022/08/12 05:19:42;;;;;;;;;;;;;;;23.83;80.91;97095.63;621795;228;66887;-68
2022/08/12 05:22:10;;;;;;;;;;;;;;;23.84;80.94;97094.53;621754;228;64871;-67
2022/08/12 05:24:37;;;;;;;;;;;;;;;23.83;80.92;97092.95;621764;228;65742;-67
2022/08/12 05:27:05;;;;;;;;;;;;;;;23.84;80.94;97097.22;621744;228;64850;-67
2022/08/12 05:29:32;;;;;;;;;;;;;;;23.83;80.99;97084.90;621761;228;62750;-67
2022/08/12 05:32:00;;;;;;;;;;;;;;;23.83;80.99;97087.58;621700;228;66880;-68
2022/08/12 05:34:29;;;;;;;;;;;;;;;23.83;81.01;97084.90;621759;228;67086;-67
2022/08/12 05:36:58;;;;;;;;;;;;;;;23.83;81.01;97088.38;621669;228;61669;-67
2022/08/12 05:39:25;;;;;;;;;;;;;;;23.83;81.01;97090.27;621634;228;67243;-68
2022/08/12 05:41:53;;;;;;;;;;;;;;;23.82;81.04;97081.42;621081;228;66809;-67
2022/08/12 05:44:20;;;;;;;;;;;;;;;23.83;81.01;97087.58;620826;228;64904;-67
2022/08/12 05:46:48;;;;;;;;;;;;;;;23.83;81.03;97084.90;620773;228;64762;-67
2022/08/12 05:49:15;;;;;;;;;;;;;;;23.82;80.99;97083.31;621558;228;64482;-68
2022/08/12 05:51:43;;;;;;;;;;;;;;;23.82;81.01;97089.47;621570;228;65021;-67
2022/08/12 05:54:11;;;;;;;;;;;;;;;23.81;81.02;97085.17;621545;228;67965;-68
2022/08/12 05:56:40;;;;;;;;;;;;;;;23.82;81.02;97086.00;620863;228;64814;-70
2022/08/12 05:59:09;;;;;;;;;;;;;;;23.82;81.04;97083.31;615510;228;66706;-70
2022/08/12 06:01:37;;;;;;;;;;;;;;;23.82;80.91;97083.31;615570;228;67152;-67
2022/08/12 06:04:05;;;;;;;;;;;;;;;23.80;80.74;97082.80;621614;225;67129;-67
2022/08/12 06:06:40;;;;;;;;;;;;;;;23.78;79.93;97077.70;621644;228;65087;-67
2022/08/12 06:09:02;;;;;;;;;;;;;;;23.78;79.19;97077.70;621415;228;67353;-67
2022/08/12 06:11:29;;;;;;;;;;;;;;;23.77;78.82;97078.80;621566;228;64891;-67
2022/08/12 06:13:57;;;;;;;;;;;;;;;23.76;77.53;97071.02;621671;228;65057;-72
2022/08/12 06:16:25;;;;;;;;;;;;;;;23.77;77.78;97078.00;621641;228;67417;-71
2022/08/12 06:18:53;;;;;;;;;;;;;;;23.77;77.85;97072.64;619567;229;64622;-72
2022/08/12 06:21:22;;;;;;;;;;;;;;;23.77;77.92;97072.64;619573;229;65033;-72
2022/08/12 06:23:51;;;;;;;;;;;;;;;23.78;77.96;97074.22;619473;229;67359;-67
2022/08/12 06:26:19;;;;;;;;;;;;;;;23.78;77.92;97068.86;619545;229;67426;-67
2022/08/12 06:28:49;;;;;;;;;;;;;;;23.77;75.02;97073.43;619601;229;65199;-67
2022/08/12 06:31:20;;;;;;;;;;;;;;;23.79;77.48;97067.77;619507;229;65005;-68
2022/08/12 06:33:49;;;;;;;;;;;;;;;23.79;77.92;97073.13;619564;229;64838;-68
2022/08/12 06:36:18;;;;;;;;;;;;;;;23.80;78.20;97066.69;619549;229;62794;-68
2022/08/12 06:38:46;;;;;;;;;;;;;;;23.80;77.34;97066.69;619558;229;67138;-69
2022/08/12 06:43:59;;;;;;;;;;;;;;;23.78;76.31;97060.80;619614;229;62840;-68
2022/08/12 06:46:28;;;;;;;;;;;;;;;23.77;75.43;97064.59;619521;229;64486;-68
2022/08/12 06:48:57;;;;;;;;;;;;;;;23.76;75.15;97061.08;619541;229;67205;-68
2022/08/12 06:51:26;;;;;;;;;;;;;;;23.77;75.09;97064.59;619481;229;62732;-71
2022/08/12 06:53:54;;;;;;;;;;;;;;;23.76;74.71;97063.77;619493;229;67600;-69
2022/08/12 06:56:22;;;;;;;;;;;;;;;23.77;74.65;97065.38;619475;229;64876;-70
2022/08/12 06:58:50;;;;;;;;;;;;;;;23.76;74.42;97050.34;619609;229;62757;-68
2022/08/12 07:01:18;;;;;;;;;;;;;;;23.77;74.08;97056.53;619495;229;64903;-69
2022/08/12 07:03:45;;;;;;;;;;;;;;;23.75;74.24;97054.13;619623;229;67068;-74
2022/08/12 07:06:13;;;;;;;;;;;;;;;23.76;73.71;97052.23;619614;229;62786;-68
2022/08/12 07:08:42;;;;;;;;;;;;;;;23.76;73.58;97049.55;619556;229;67231;-69
2022/08/12 07:11:12;;;;;;;;;;;;;;;23.77;73.78;97048.48;619560;226;67044;-67
2022/08/12 07:13:43;;;;;;;;;;;;;;;23.77;73.50;97051.97;619497;229;64903;-74
2022/08/12 07:16:15;;;;;;;;;;;;;;;23.77;73.35;97053.86;619464;229;67247;-69
2022/08/12 07:18:46;;;;;;;;;;;;;;;23.80;71.46;97047.91;615273;229;67191;-71
2022/08/12 07:21:14;;;;;;;;;;;;;;;23.83;72.86;97052.70;615059;230;65047;-70
2022/08/12 07:23:42;;;;;;;;;;;;;;;23.84;73.40;97055.08;615043;230;64738;-66
2022/08/12 07:26:11;;;;;;;;;;;;;;;23.85;73.35;97045.16;615026;230;66957;-67
2022/08/12 07:28:40;;;;;;;;;;;;;;;23.86;73.41;97046.75;614855;230;62656;-67
2022/08/12 07:31:08;;;;;;;;;;;;;;;23.86;73.48;97042.17;614889;230;67365;-67
2022/08/12 07:33:37;;;;;;;;;;;;;;;23.88;73.48;97036.53;614229;230;66684;-67
2022/08/12 07:36:05;;;;;;;;;;;;;;;23.88;73.66;97037.32;615015;230;64865;-68
2022/08/12 07:38:34;;;;;;;;;;;;;;;23.90;73.61;97037.05;615072;230;67317;-70
2022/08/12 07:41:04;;;;;;;;;;;;;;;23.89;73.68;97032.75;615025;230;67320;-68
2022/08/12 07:43:34;;;;;;;;;;;;;;;23.90;71.70;97039.73;615049;230;64894;-69
2022/08/12 07:46:04;;;;;;;;;;;;;;;23.87;74.06;97037.59;615131;230;67290;-68
2022/08/12 07:48:39;;;;;;;;;;;;;;;23.87;74.31;97033.05;615121;230;66805;-67
2022/08/12 07:51:07;;;;;;;;;;;;;;;23.86;74.74;97027.96;614946;230;64904;-72
2022/08/12 07:53:36;;;;;;;;;;;;;;;23.85;74.97;97026.38;615011;230;67317;-68
2022/08/12 07:56:04;;;;;;;;;;;;;;;23.84;75.52;97030.92;615098;230;66674;-66
2022/08/12 07:58:32;;;;;;;;;;;;;;;23.85;75.74;97031.74;615090;230;65057;-68
2022/08/12 08:01:00;;;;;;;;;;;;;;;23.84;76.00;97025.55;615191;230;66451;-68
2022/08/12 08:03:29;;;;;;;;;;;;;;;23.84;76.29;97022.87;615084;230;66772;-67
2022/08/12 08:05:57;;;;;;;;;;;;;;;23.85;76.56;97029.06;615069;230;64924;-67
2022/08/12 08:08:26;;;;;;;;;;;;;;;23.85;76.72;97015.64;615171;230;67187;-68
2022/08/12 08:12:52;;;;;;;;;;;;;;;23.85;76.84;97018.33;615081;230;66632;-67
2022/08/12 08:13:24;;;;;;;;;;;;;;;23.85;76.99;97019.12;614589;230;63702;-67
2022/08/12 08:15:52;;;;;;;;;;;;;;;23.84;77.10;97014.03;615079;230;66721;-67
2022/08/12 08:18:20;;;;;;;;;;;;;;;23.85;77.26;97012.95;615003;229;66840;-67
2022/08/12 08:20:48;;;;;;;;;;;;;;;23.84;77.36;97011.34;615042;230;64934;-67
2022/08/12 08:23:17;;;;;;;;;;;;;;;23.84;77.37;97008.66;614856;230;64753;-67
2022/08/12 08:25:45;;;;;;;;;;;;;;;23.84;77.42;97003.29;614798;230;67113;-67
2022/08/12 08:28:20;;;;;;;;;;;;;;;23.85;77.59;97011.06;615154;230;65007;-70
2022/08/12 08:30:48;;;;;;;;;;;;;;;23.85;77.67;97005.70;615003;230;64911;-72
2022/08/12 08:33:15;;;;;;;;;;;;;;;23.84;77.72;97000.61;614996;230;66916;-71
2022/08/12 08:35:44;;;;;;;;;;;;;;;23.84;72.09;97003.29;615083;230;66044;-71
2022/08/12 08:38:13;;;;;;;;;;;;;;;23.87;73.73;97002.71;615082;230;64837;-69
2022/08/12 08:43:30;;;;;;;;;;;;;;;23.87;72.35;96997.34;614170;230;62172;-68
2022/08/12 08:46:00;;;;;;;;;;;;;;;23.88;72.77;96991.70;615112;230;64746;-69
2022/08/12 08:48:32;;;;;;;;;;;;;;;23.86;70.08;96990.39;615025;230;64542;-67
2022/08/12 08:50:57;;;;;;;;;;;;;;;23.87;74.01;96991.97;614874;229;62816;-67
2022/08/12 08:53:25;;;;;;;;;;;;;;;23.85;69.84;96978.86;614794;230;64846;-66
2022/08/12 08:55:53;;;;;;;;;;;;;;;23.86;74.34;96985.81;614220;229;67269;-67
2022/08/12 08:58:20;;;;;;;;;;;;;;;23.85;75.38;96975.39;614415;230;64838;-66
2022/08/12 09:00:51;;;;;;;;;;;;;;;23.85;75.53;96967.34;614659;230;67094;-66
2022/08/12 09:03:18;;;;;;;;;;;;;;;23.84;75.53;96973.77;615024;230;67286;-66
2022/08/12 09:05:46;;;;;;;;;;;;;;;23.84;75.40;96971.09;614999;230;64999;-67
2022/08/12 09:08:13;;;;;;;;;;;;;;;23.82;75.21;96963.34;614975;230;67023;-69
2022/08/12 09:10:41;;;;;;;;;;;;;;;23.83;73.45;96958.77;614988;230;67322;-67
2022/08/12 09:13:27;;;;;;;;;;;;;;;23.84;75.15;96957.67;615108;230;65016;-71
2022/08/12 09:15:54;;;;;;;;;;;;;;;23.83;72.29;96962.24;615064;230;64621;-70
2022/08/12 09:18:26;;;;;;;;;;;;;;;23.87;70.74;96959.77;618762;229;64599;-71
2022/08/12 09:20:54;;;;;;;;;;;;;;;23.91;72.22;96960.80;619522;229;65489;-69
2022/08/12 09:23:21;;;;;;;;;;;;;;;23.88;72.25;96947.97;619556;229;67319;-71
2022/08/12 09:25:49;;;;;;;;;;;;;;;23.90;74.14;96951.16;619572;229;66874;-70
2022/08/12 09:28:16;;;;;;;;;;;;;;;23.87;75.04;96952.54;619529;229;64859;-68
2022/08/12 09:30:52;;;;;;;;;;;;;;;23.86;75.30;96953.61;619523;229;67796;-68
2022/08/12 09:33:16;;;;;;;;;;;;;;;23.86;75.78;96955.50;619433;229;65584;-68
2022/08/12 09:35:44;;;;;;;;;;;;;;;23.87;76.12;96954.41;619549;229;63634;-68
2022/08/12 09:38:16;;;;;;;;;;;;;;;23.86;76.41;96952.81;619540;229;67193;-68
2022/08/12 09:40:44;;;;;;;;;;;;;;;23.86;76.68;96952.81;619608;229;67179;-69
2022/08/12 09:45:59;;;;;;;;;;;;;;;23.84;77.03;96949.62;619497;229;64948;-68
2022/08/12 09:48:28;;;;;;;;;;;;;;;23.85;77.12;96957.39;619465;229;66830;-68
2022/08/12 09:50:55;;;;;;;;;;;;;;;23.85;77.22;96952.02;619570;229;62647;-68
2022/08/12 09:53:24;;;;;;;;;;;;;;;23.84;77.28;96950.41;619420;229;64846;-68
2022/08/12 09:55:52;;;;;;;;;;;;;;;23.84;77.27;96950.41;619542;229;67101;-70
2022/08/12 09:58:27;;;;;;;;;;;;;;;23.84;77.29;96949.62;619532;229;65116;-68
2022/08/12 10:00:55;;;;;;;;;;;;;;;23.84;77.27;96947.73;619550;229;67313;-67
2022/08/12 10:03:27;;;;;;;;;;;;;;;23.84;77.18;96941.56;619237;229;64957;-68
2022/08/12 10:05:55;;;;;;;;;;;;;;;23.83;77.17;96938.09;619562;229;65007;-67
2022/08/12 10:08:31;;;;;;;;;;;;;;;23.84;77.12;96941.56;619555;229;67106;-68
2022/08/12 10:13:43;;;;;;;;;;;;;;;23.84;77.18;96925.47;618932;229;65199;-67
2022/08/12 10:16:11;;;;;;;;;;;;;;;23.83;77.22;96935.41;619487;229;67101;-68
2022/08/12 10:18:40;;;;;;;;;;;;;;;23.83;77.24;96932.72;619386;229;66856;-71
2022/08/12 10:21:09;;;;;;;;;;;;;;;23.84;77.27;96930.83;619512;229;65182;-70
2022/08/12 10:23:37;;;;;;;;;;;;;;;23.83;77.31;96927.36;619458;229;64752;-72
2022/08/12 10:31:37;;;;;;;;;;;;;;;23.83;77.46;96915.83;619576;229;64453;-66
2022/08/12 10:34:05;;;;;;;;;;;;;;;23.83;77.64;96913.94;619508;229;66910;-66
2022/08/12 10:36:33;;;;;;;;;;;;;;;23.83;77.60;96903.20;612988;229;65107;-66
2022/08/12 10:39:02;;;;;;;;;;;;;;;23.84;77.58;96909.36;619465;229;65137;-66
2022/08/12 10:44:15;;;;;;;;;;;;;;;23.83;77.62;96903.20;612831;229;64891;-67
2022/08/12 10:46:44;;;;;;;;;;;;;;;23.83;77.56;96899.73;612600;229;66098;-66
2022/08/12 10:49:12;;;;;;;;;;;;;;;23.83;77.69;96900.52;619508;229;66827;-68
2022/08/12 10:51:40;;;;;;;;;;;;;;;23.83;77.70;96899.73;619579;229;63000;-67
2022/08/12 10:54:10;;;;;;;;;;;;;;;23.84;77.72;96898.63;619583;229;64931;-67
2022/08/12 10:56:39;;;;;;;;;;;;;;;23.84;77.81;96893.27;619443;228;71628;-67
2022/08/12 10:59:07;;;;;;;;;;;;;;;23.84;77.83;96895.95;619563;229;65076;-69
2022/08/12 11:01:36;;;;;;;;;;;;;;;23.84;77.77;96896.73;619462;229;67009;-67
2022/08/12 11:04:06;;;;;;;;;;;;;;;23.86;69.77;96889.20;619602;229;67032;-66
2022/08/12 11:06:32;;;;;;;;;;;;;;;;;;619629;229;63094;-67
2022/08/12 11:09:00;;;;;;;;;;;;;;;23.91;75.23;96894.49;619573;229;63571;-69
2022/08/12 11:11:29;;;;;;;;;;;;;;;23.89;76.46;96888.61;619418;229;67034;-67
2022/08/12 11:13:56;;;;;;;;;;;;;;;23.88;77.28;96889.71;619528;229;64930;-68
2022/08/12 11:16:26;;;;;;;;;;;;;;;23.88;77.78;96880.87;619441;229;67005;-70
2022/08/12 11:18:54;;;;;;;;;;;;;;;23.87;78.04;96880.08;619663;229;64689;-69
2022/08/12 11:21:21;;;;;;;;;;;;;;;23.86;78.12;96878.47;619582;229;65226;-67
2022/08/12 11:23:49;;;;;;;;;;;;;;;23.87;78.25;96876.57;619482;229;67158;-67
2022/08/12 11:26:19;;;;;;;;;;;;;;;23.87;78.32;96879.26;619604;229;67177;-67
2022/08/12 11:28:46;;;;;;;;;;;;;;;23.86;78.45;96875.78;619596;229;65059;-67
2022/08/12 11:31:13;;;;;;;;;;;;;;;23.87;78.53;96879.26;619538;229;67007;-68
2022/08/12 11:33:42;;;;;;;;;;;;;;;23.87;78.61;96879.26;619578;229;67024;-68
2022/08/12 11:36:09;;;;;;;;;;;;;;;23.86;78.70;96874.99;619599;229;65033;-68
2022/08/12 11:38:39;;;;;;;;;;;;;;;23.86;78.71;96873.09;619509;229;67191;-68
2022/08/12 11:41:06;;;;;;;;;;;;;;;23.86;78.62;96869.63;619484;229;64611;-68
2022/08/12 11:43:36;;;;;;;;;;;;;;;23.84;71.76;96863.74;619651;229;63012;-68
2022/08/12 11:46:02;;;;;;;;;;;;;;;;;;619514;229;64537;-67
2022/08/12 11:48:30;;;;;;;;;;;;;;;23.95;73.75;96864.38;619630;229;64850;-69
2022/08/12 11:50:57;;;;;;;;;;;;;;;23.95;76.10;96859.80;619533;229;62830;-66
2022/08/12 11:53:24;;;;;;;;;;;;;;;23.96;76.51;96855.25;619462;229;65890;-66
2022/08/12 11:55:52;;;;;;;;;;;;;;;23.96;76.86;96853.36;619229;226;64821;-66
2022/08/12 11:58:19;;;;;;;;;;;;;;;23.96;76.92;96852.57;619634;229;64881;-66
2022/08/12 12:00:47;;;;;;;;;;;;;;;23.97;76.94;96848.78;619548;229;67295;-67
2022/08/12 12:03:17;;;;;;;;;;;;;;;23.97;76.77;96846.10;619659;228;46456;-67
2022/08/12 12:05:44;;;;;;;;;;;;;;;23.97;76.69;96841.52;619408;229;62669;-70
2022/08/12 12:08:22;;;;;;;;;;;;;;;23.98;76.77;96840.45;619632;229;66848;-68
2022/08/12 12:10:50;;;;;;;;;;;;;;;23.98;76.23;96831.58;619433;229;66536;-67
2022/08/12 12:13:19;;;;;;;;;;;;;;;23.99;76.25;96839.34;619593;229;64835;-68
2022/08/12 12:15:47;;;;;;;;;;;;;;;23.98;76.32;96832.40;619546;229;66954;-69
2022/08/12 12:18:21;;;;;;;;;;;;;;;24.00;76.42;96835.56;619565;229;67652;-63
2022/08/12 12:20:49;;;;;;;;;;;;;;;23.99;76.47;96823.25;619569;229;62649;-63
2022/08/12 12:23:17;;;;;;;;;;;;;;;24.00;76.53;96822.14;619637;229;64351;-63
2022/08/12 12:25:44;;;;;;;;;;;;;;;23.99;76.55;96817.88;619653;229;66882;-63
2022/08/12 12:28:12;;;;;;;;;;;;;;;24.00;76.61;96819.45;619593;229;64912;-62
2022/08/12 12:30:40;;;;;;;;;;;;;;;24.00;76.74;96819.45;619513;229;66730;-61
2022/08/12 12:33:08;;;;;;;;;;;;;;;24.01;76.70;96820.25;619581;229;66782;-62
2022/08/12 12:35:36;;;;;;;;;;;;;;;24.01;76.77;96822.93;619430;229;63698;-64
2022/08/12 12:38:05;;;;;;;;;;;;;;;24.00;76.82;96806.04;619262;229;64960;-62
2022/08/12 12:40:34;;;;;;;;;;;;;;;24.02;76.83;96817.28;619460;229;65185;-62
2022/08/12 12:43:01;;;;;;;;;;;;;;;24.02;76.86;96813.80;619515;229;63822;-63
2022/08/12 12:45:31;;;;;;;;;;;;;;;24.02;76.83;96811.91;619566;229;64758;-63
2022/08/12 12:48:00;;;;;;;;;;;;;;;24.03;76.85;96797.39;619553;229;64677;-63
2022/08/12 12:50:29;;;;;;;;;;;;;;;24.02;76.88;96800.39;619590;229;64990;-63
2022/08/12 12:52:56;;;;;;;;;;;;;;;24.02;76.95;96805.75;619612;229;67355;-62
2022/08/12 12:55:25;;;;;;;;;;;;;;;24.04;76.95;96795.53;619447;229;64722;-63
2022/08/12 12:57:52;;;;;;;;;;;;;;;24.03;77.00;96800.08;619579;229;62895;-66
2022/08/12 13:00:20;;;;;;;;;;;;;;;24.04;76.96;96800.89;619651;229;66936;-67
2022/08/12 13:02:52;;;;;;;;;;;;;;;24.03;74.31;96801.97;619535;229;66915;-62
2022/08/12 13:05:25;;;;;;;;;;;;;;;24.03;75.72;96796.59;619561;229;64830;-64
2022/08/12 13:07:53;;;;;;;;;;;;;;;24.00;76.44;96800.67;619591;229;67451;-65
2022/08/12 13:10:22;;;;;;;;;;;;;;;23.98;77.07;96800.19;619430;229;67130;-64
2022/08/12 13:12:50;;;;;;;;;;;;;;;23.97;77.28;96795.89;619539;229;65016;-63
2022/08/12 13:15:18;;;;;;;;;;;;;;;23.95;77.38;96787.33;619603;229;65073;-64
2022/08/12 13:17:55;;;;;;;;;;;;;;;23.93;77.18;96781.48;619463;229;64827;-64
2022/08/12 13:20:16;;;;;;;;;;;;;;;23.93;76.95;96800.27;619210;229;62788;-64
2022/08/12 13:22:45;;;;;;;;;;;;;;;23.93;76.83;96802.95;619541;229;65152;-64
2022/08/12 13:25:14;;;;;;;;;;;;;;;23.92;76.65;96798.66;619538;229;65657;-64
2022/08/12 13:27:46;;;;;;;;;;;;;;;23.92;76.60;96790.61;619603;229;64982;-63
2022/08/12 13:30:16;;;;;;;;;;;;;;;23.91;76.52;96794.40;619561;229;67261;-64
2022/08/12 13:32:45;;;;;;;;;;;;;;;23.91;76.47;96797.08;619519;229;65026;-64
2022/08/12 13:35:15;;;;;;;;;;;;;;;;;;619535;229;65495;-64
2022/08/12 13:37:41;;;;;;;;;;;;;;;23.91;76.25;96794.40;619485;229;66044;-63
2022/08/12 13:40:09;;;;;;;;;;;;;;;;;;619531;229;66991;-64
2022/08/12 13:42:40;;;;;;;;;;;;;;;23.89;76.19;96792.00;619669;229;63024;-65
2022/08/12 13:45:08;;;;;;;;;;;;;;;23.90;76.06;96798.19;619542;229;67924;-64
2022/08/12 13:47:55;;;;;;;;;;;;;;;23.91;76.25;96797.08;619524;229;66814;-64
2022/08/12 13:50:22;;;;;;;;;;;;;;;;;;619583;229;64891;-68
2022/08/12 13:52:49;;;;;;;;;;;;;;;;;;619578;229;65797;-62
2022/08/12 13:55:24;;;;;;;;;;;;;;;23.90;76.33;96795.50;619632;229;65232;-67
2022/08/12 13:57:47;;;;;;;;;;;;;;;23.89;76.52;96791.20;619390;229;62669;-62
2022/08/12 14:00:14;;;;;;;;;;;;;;;23.89;76.71;96797.36;619506;229;67211;-63
2022/08/12 14:02:42;;;;;;;;;;;;;;;23.88;76.00;96790.41;619453;229;64675;-64
2022/08/12 14:05:10;;;;;;;;;;;;;;;23.89;75.77;96797.36;619570;229;65253;-64
2022/08/12 14:07:37;;;;;;;;;;;;;;;;;;619527;229;64826;-63
2022/08/12 14:12:50;;;;;;;;;;;;;;;23.91;76.75;96789.03;619557;229;63707;-64
2022/08/12 14:15:17;;;;;;;;;;;;;;;;;;619552;229;65564;-64
2022/08/12 14:17:46;;;;;;;;;;;;;;;23.90;76.34;96787.45;619569;229;67149;-64
2022/08/12 14:20:13;;;;;;;;;;;;;;;23.90;76.26;96784.77;619556;229;65202;-64
2022/08/12 14:22:43;;;;;;;;;;;;;;;23.90;76.18;96787.45;619507;228;45998;-64
2022/08/12 14:25:14;;;;;;;;;;;;;;;23.90;76.05;96792.81;619573;229;65110;-63
2022/08/12 14:27:43;;;;;;;;;;;;;;;23.90;76.06;96792.81;619529;228;65318;-64
2022/08/12 14:30:10;;;;;;;;;;;;;;;23.88;76.00;96790.41;619517;229;67047;-64
2022/08/12 14:32:39;;;;;;;;;;;;;;;23.89;75.99;96794.68;619602;229;67092;-64
2022/08/12 14:35:07;;;;;;;;;;;;;;;23.89;75.97;96788.52;619568;229;64849;-64
2022/08/12 14:37:36;;;;;;;;;;;;;;;23.89;75.84;96788.52;619562;229;67222;-65
2022/08/12 14:40:04;;;;;;;;;;;;;;;23.88;75.86;96787.73;619593;229;64899;-65
2022/08/12 14:42:32;;;;;;;;;;;;;;;23.88;75.82;96778.89;619559;229;62559;-64
2022/08/12 14:45:00;;;;;;;;;;;;;;;23.88;75.76;96777.00;619535;229;64842;-64